Terminal Aerodrome Forecast
Issued by NWS

Home | Current Version | Previous Version | Text Only | Print | Product List | Glossary On
Versions: 1 2 3 4 5 6 7 8 9 10 11 12 13 14 15
000
FTUS46 KSEW 031747
TAFHQM
TAF
KHQM 031747Z 0318/0418 22008KT P6SM -SHRA BKN050 OVC080
      TEMPO 0318/0321 3SM -RA BR BKN030 OVC040
     FM040100 23008KT P6SM SCT050 BKN100
     FM040900 05004KT P6SM SCT020 BKN050=

USA.gov is the U.S. government's official web portal to all federal, state and local government web resources and services.